Terminal Aerodrome Forecast
Issued by NWS

Home | Current Version | Previous Version | Text Only | Print | Product List | Glossary On
Versions: 1 2 3 4 5 6 7 8 9 10 11 12 13 14
157
FTUS43 KJKL 012320
TAFSME
TAF
KSME 012320Z 0200/0224 00000KT P6SM VCTS SCT050CB
     FM020200 00000KT P6SM VCSH BKN050
     FM020900 00000KT 4SM BR VCSH BKN015
     FM021200 00000KT 2SM SHRA BKN010
     FM021700 24005KT P6SM SHRA OVC035
     FM022200 28006KT P6SM VCSH OVC020=

USA.gov is the U.S. government's official web portal to all federal, state and local government web resources and services.